createdAt,value
2019-04-01T00:01:50.653Z,40.88
2019-04-01T00:04:18.378Z,41.81
2019-04-01T00:06:46.093Z,41.54
2019-04-01T00:09:13.808Z,41.69
2019-04-01T00:11:41.558Z,41.58
2019-04-01T00:14:09.277Z,42.03
2019-04-01T00:16:42.507Z,41.82
2019-04-01T00:19:10.745Z,41.80
2019-04-01T00:21:38.471Z,41.39
2019-04-01T00:24:06.205Z,42.16
2019-04-01T00:26:34.175Z,41.58
2019-04-01T00:29:01.941Z,41.92
2019-04-01T00:31:29.716Z,41.20
2019-04-01T00:33:57.438Z,41.13
2019-04-01T00:36:25.199Z,41.58
2019-04-01T00:38:52.933Z,41.88
2019-04-01T00:41:20.639Z,42.29
2019-04-01T00:43:56.358Z,41.65
2019-04-01T00:46:24.226Z,42.13
2019-04-01T00:48:51.932Z,41.75
2019-04-01T00:51:21.618Z,42.02
2019-04-01T00:53:50.218Z,41.83
2019-04-01T00:56:17.942Z,42.23
2019-04-01T00:58:45.706Z,42.28
2019-04-01T01:01:13.402Z,41.49
2019-04-01T01:03:41.099Z,42.10
2019-04-01T01:06:08.833Z,41.76
2019-04-01T01:08:36.636Z,41.33
2019-04-01T01:11:04.407Z,41.74
2019-04-01T01:13:32.218Z,42.10
2019-04-01T01:25:06.661Z,42.16
2019-04-01T01:27:34.521Z,42.26
2019-04-01T01:30:02.280Z,42.01
2019-04-01T01:32:30.014Z,41.37
2019-04-01T01:34:57.733Z,42.41
2019-04-01T01:37:26.440Z,41.82
2019-04-01T01:39:54.375Z,42.55
2019-04-01T01:42:22.382Z,42.17
2019-04-01T01:44:50.108Z,42.73
2019-04-01T01:47:17.812Z,42.33
2019-04-01T01:49:45.847Z,41.64
2019-04-01T01:52:13.558Z,42.48
2019-04-01T01:54:41.276Z,41.30
2019-04-01T01:57:09.066Z,42.80
2019-04-01T01:59:36.806Z,42.76
2019-04-01T02:02:04.677Z,41.92
2019-04-01T02:04:35.307Z,41.93
2019-04-01T02:07:03.191Z,42.18
2019-04-01T02:09:30.918Z,43.13
2019-04-01T02:11:58.634Z,43.08
2019-04-01T02:14:26.343Z,42.74
2019-04-01T02:16:54.107Z,41.61
2019-04-01T02:19:21.822Z,41.41
2019-04-01T02:21:49.549Z,44.19
2019-04-01T02:24:17.267Z,41.93
2019-04-01T02:26:44.972Z,43.69
2019-04-01T02:29:12.674Z,41.50
2019-04-01T02:31:40.392Z,43.63
2019-04-01T02:34:08.133Z,42.48
2019-04-01T02:36:36.259Z,41.78
2019-04-01T02:39:05.917Z,42.08
2019-04-01T02:41:33.683Z,41.98
2019-04-01T02:44:05.646Z,41.87
2019-04-01T02:46:32.538Z,41.66
2019-04-01T02:49:00.251Z,41.62
2019-04-01T02:51:27.997Z,41.74
2019-04-01T02:53:55.716Z,41.07
2019-04-01T02:56:23.689Z,41.59
2019-04-01T02:58:51.442Z,41.66
2019-04-01T03:01:19.209Z,41.92
2019-04-01T03:03:46.937Z,42.26
2019-04-01T03:06:14.703Z,42.19
2019-04-01T03:08:42.447Z,41.99
2019-04-01T03:11:11.195Z,42.11
2019-04-01T03:13:39.103Z,42.22
2019-04-01T03:16:06.894Z,42.57
2019-04-01T03:18:34.613Z,43.14
2019-04-01T03:21:02.316Z,43.12
2019-04-01T03:23:30.085Z,42.83
2019-04-01T03:26:00.588Z,42.42
2019-04-01T03:28:29.588Z,42.48
2019-04-01T03:30:57.308Z,41.98
2019-04-01T03:33:25.071Z,42.50
2019-04-01T03:35:52.885Z,42.26
2019-04-01T03:38:20.668Z,41.95
2019-04-01T03:40:48.395Z,42.32
2019-04-01T03:43:16.112Z,42.23
2019-04-01T03:45:43.844Z,42.03
2019-04-01T03:48:11.866Z,42.46
2019-04-01T03:50:39.652Z,42.26
2019-04-01T03:53:07.470Z,42.94
2019-04-01T03:55:35.453Z,41.65
2019-04-01T03:58:03.385Z,41.74
2019-04-01T04:00:31.165Z,42.65
2019-04-01T04:02:58.882Z,43.60
2019-04-01T04:05:26.620Z,42.11
2019-04-01T04:07:54.365Z,41.57
2019-04-01T04:10:22.103Z,42.89
2019-04-01T04:12:49.817Z,42.85
2019-04-01T04:15:17.528Z,42.12
2019-04-01T04:17:45.255Z,41.98
2019-04-01T04:20:12.966Z,41.46
2019-04-01T04:22:40.779Z,41.75
2019-04-01T04:25:08.594Z,42.30
2019-04-01T04:27:36.316Z,42.29
2019-04-01T04:30:04.447Z,41.95
2019-04-01T04:32:32.164Z,41.50
2019-04-01T04:34:59.951Z,42.30
2019-04-01T04:37:27.672Z,41.24
2019-04-01T04:39:55.412Z,41.96
2019-04-01T04:42:23.126Z,42.04
2019-04-01T04:44:50.920Z,42.98
2019-04-01T04:47:18.639Z,44.69
2019-04-01T04:49:46.343Z,45.08
2019-04-01T04:52:15.424Z,45.32
2019-04-01T04:54:43.203Z,48.05
2019-04-01T04:57:11.629Z,47.16
2019-04-01T04:59:39.552Z,48.41
2019-04-01T05:02:07.345Z,48.56
2019-04-01T05:04:35.064Z,49.14
2019-04-01T05:07:02.881Z,49.15
2019-04-01T05:09:30.590Z,47.83
2019-04-01T05:11:58.627Z,46.75
2019-04-01T05:14:26.558Z,48.86
2019-04-01T05:16:54.302Z,49.82
2019-04-01T05:19:22.115Z,47.74
2019-04-01T05:21:49.895Z,50.44
2019-04-01T05:24:17.607Z,49.40
2019-04-01T05:26:45.440Z,49.72
2019-04-01T05:29:13.154Z,49.28
2019-04-01T05:31:40.917Z,49.87
2019-04-01T05:34:08.645Z,50.59
2019-04-01T05:36:36.435Z,50.51
2019-04-01T05:39:06.263Z,47.61
2019-04-01T05:41:33.971Z,48.96
2019-04-01T05:44:02.481Z,48.23
2019-04-01T05:46:30.503Z,48.49
2019-04-01T05:48:58.227Z,47.26
2019-04-01T05:51:25.947Z,48.79
2019-04-01T05:53:53.655Z,47.73
2019-04-01T05:56:21.381Z,48.26
2019-04-01T05:58:49.153Z,49.98
2019-04-01T06:01:20.306Z,49.29
2019-04-01T06:03:48.082Z,49.82
2019-04-01T06:06:15.810Z,50.67
2019-04-01T06:08:43.557Z,50.39
2019-04-01T06:11:11.275Z,50.18
2019-04-01T06:13:38.983Z,46.71
2019-04-01T06:16:06.719Z,48.56
2019-04-01T06:18:35.475Z,50.24
2019-04-01T06:21:09.342Z,50.81
2019-04-01T06:23:37.143Z,49.31
2019-04-01T06:26:04.869Z,50.39
2019-04-01T06:28:32.583Z,51.16
2019-04-01T06:31:00.357Z,49.18
2019-04-01T06:33:28.153Z,50.90
2019-04-01T06:35:55.912Z,51.15
2019-04-01T06:38:23.766Z,50.10
2019-04-01T06:40:52.203Z,50.03
2019-04-01T06:43:19.977Z,47.72
2019-04-01T06:45:47.681Z,50.89
2019-04-01T06:48:15.434Z,50.94
2019-04-01T06:50:43.173Z,50.09
2019-04-01T06:53:10.916Z,50.00
2019-04-01T06:55:38.660Z,48.80
2019-04-01T06:58:06.386Z,47.34
2019-04-01T07:00:36.448Z,50.50
2019-04-01T07:03:05.886Z,47.29
2019-04-01T07:05:33.736Z,50.01
2019-04-01T07:08:01.487Z,50.17
2019-04-01T07:10:29.283Z,50.04
2019-04-01T07:12:57.277Z,48.91
2019-04-01T07:15:24.995Z,50.56
2019-04-01T07:17:52.963Z,49.91
2019-04-01T07:20:20.774Z,48.96
2019-04-01T07:22:48.510Z,49.94
2019-04-01T07:25:16.220Z,50.82
2019-04-01T07:27:43.931Z,50.57
2019-04-01T07:30:11.665Z,50.80
2019-04-01T07:32:39.402Z,49.35
2019-04-01T07:35:07.250Z,43.28
2019-04-01T07:37:34.990Z,48.05
2019-04-01T07:40:02.938Z,49.56
2019-04-01T07:42:30.739Z,50.23
2019-04-01T07:45:06.147Z,49.65
2019-04-01T07:47:29.555Z,49.46
2019-04-01T07:49:57.270Z,48.79
2019-04-01T07:52:25.106Z,49.01
2019-04-01T07:54:52.838Z,46.81
2019-04-01T07:57:20.639Z,48.50
2019-04-01T07:59:48.378Z,50.68
2019-04-01T08:02:16.106Z,43.38
2019-04-01T08:04:43.935Z,50.05
2019-04-01T08:07:13.339Z,49.40
2019-04-01T08:09:41.247Z,50.42
2019-04-01T08:12:08.963Z,51.25
2019-04-01T08:14:36.703Z,43.13
2019-04-01T08:17:04.443Z,43.94
2019-04-01T08:19:32.240Z,46.65
2019-04-01T08:21:59.954Z,47.62
2019-04-01T08:24:27.758Z,51.31
2019-04-01T08:26:59.801Z,50.01
2019-04-01T08:29:30.509Z,45.29
2019-04-01T08:31:54.712Z,50.15
2019-04-01T08:34:22.415Z,51.04
2019-04-01T08:36:53.172Z,45.74
2019-04-01T08:39:21.295Z,51.58
2019-04-01T08:41:49.311Z,50.48
2019-04-01T08:44:17.159Z,48.24
2019-04-01T08:46:44.931Z,44.12
2019-04-01T08:49:12.718Z,49.62
2019-04-01T08:51:40.486Z,48.13
2019-04-01T08:54:08.238Z,48.03
2019-04-01T08:56:38.170Z,45.26
2019-04-01T08:59:05.488Z,49.00
2019-04-01T09:01:35.324Z,48.62
2019-04-01T09:04:10.808Z,49.12
2019-04-01T09:06:35.814Z,44.21
2019-04-01T09:09:05.446Z,44.06
2019-04-01T09:11:33.294Z,43.55
2019-04-01T09:14:01.102Z,42.99
2019-04-01T09:16:28.843Z,42.98
2019-04-01T09:18:56.746Z,42.33
2019-04-01T09:21:24.578Z,43.06
2019-04-01T09:23:52.597Z,45.90
2019-04-01T09:26:20.482Z,44.09
2019-04-01T09:28:48.214Z,43.24
2019-04-01T09:31:15.953Z,44.40
2019-04-01T09:33:43.682Z,43.58
2019-04-01T09:36:11.422Z,43.63
2019-04-01T09:38:39.262Z,43.85
2019-04-01T09:41:07.074Z,43.42
2019-04-01T09:43:40.886Z,42.71
2019-04-01T09:46:06.071Z,42.31
2019-04-01T09:48:33.898Z,41.28
2019-04-01T09:51:01.643Z,42.04
2019-04-01T09:53:29.463Z,42.54
2019-04-01T09:55:57.178Z,41.29
2019-04-01T09:58:25.240Z,41.40
2019-04-01T10:00:53.612Z,42.89
2019-04-01T10:03:21.476Z,42.37
2019-04-01T10:05:49.227Z,42.02
2019-04-01T10:08:16.953Z,43.03
2019-04-01T10:10:44.666Z,42.58
2019-04-01T10:13:12.498Z,42.17
2019-04-01T10:15:40.236Z,42.19
2019-04-01T10:18:07.927Z,42.67
2019-04-01T10:20:35.643Z,41.29
2019-04-01T10:23:03.375Z,41.78
2019-04-01T10:25:40.654Z,42.28
2019-04-01T10:28:08.378Z,43.67
2019-04-01T10:30:36.287Z,43.94
2019-04-01T10:33:04.023Z,43.27
2019-04-01T10:35:31.802Z,42.31
2019-04-01T10:37:59.560Z,44.91
2019-04-01T10:40:29.539Z,43.41
2019-04-01T10:42:57.347Z,41.89
2019-04-01T10:45:25.432Z,42.78
2019-04-01T10:47:53.279Z,42.69
2019-04-01T10:50:21.078Z,43.03
2019-04-01T10:52:48.961Z,43.18
2019-04-01T10:55:16.852Z,43.10
2019-04-01T10:57:44.631Z,43.18
2019-04-01T11:00:12.384Z,42.87
2019-04-01T11:02:50.205Z,43.70
2019-04-01T11:05:18.294Z,43.49
2019-04-01T11:07:46.258Z,43.71
2019-04-01T11:10:14.035Z,42.30
2019-04-01T11:12:41.744Z,43.64
2019-04-01T11:15:09.480Z,43.23
2019-04-01T11:17:37.266Z,43.25
2019-04-01T11:20:05.145Z,45.29
2019-04-01T11:22:32.965Z,43.58
2019-04-01T11:25:00.903Z,42.48
2019-04-01T11:27:28.667Z,44.01
2019-04-01T11:29:56.387Z,41.94
2019-04-01T11:32:24.156Z,41.78
2019-04-01T11:34:51.954Z,43.46
2019-04-01T11:37:25.736Z,43.14
2019-04-01T11:39:56.077Z,40.96
2019-04-01T11:42:26.737Z,41.04
2019-04-01T11:44:54.645Z,42.86
2019-04-01T11:47:22.558Z,44.23
2019-04-01T11:49:50.434Z,41.53
2019-04-01T11:52:18.267Z,42.87
2019-04-01T11:54:46.328Z,42.20
2019-04-01T11:57:16.483Z,42.49
2019-04-01T11:59:44.517Z,43.65
2019-04-01T12:02:20.039Z,43.94
2019-04-01T12:04:49.134Z,43.30
2019-04-01T12:07:52.319Z,45.26
2019-04-01T12:10:36.614Z,41.92
2019-04-01T12:13:10.404Z,43.41
2019-04-01T12:15:38.188Z,42.70
2019-04-01T12:18:18.753Z,43.87
2019-04-01T12:20:46.540Z,42.20
2019-04-01T12:23:27.984Z,42.53
2019-04-01T12:25:58.202Z,43.19
2019-04-01T12:28:25.911Z,44.23
2019-04-01T12:30:53.799Z,41.50
2019-04-01T12:33:21.512Z,43.09
2019-04-01T12:35:49.811Z,42.37
2019-04-01T12:38:17.651Z,42.30
2019-04-01T12:40:45.394Z,43.06
2019-04-01T12:43:13.128Z,43.34
2019-04-01T12:45:51.554Z,42.01
2019-04-01T12:48:20.437Z,42.90
2019-04-01T12:50:48.507Z,41.85
2019-04-01T12:53:16.996Z,43.98
2019-04-01T12:55:45.216Z,41.21
2019-04-01T12:58:13.347Z,41.14
2019-04-01T13:00:41.147Z,41.94
2019-04-01T13:03:08.870Z,41.46
2019-04-01T13:05:36.575Z,40.72
2019-04-01T13:08:04.366Z,44.78
2019-04-01T13:10:32.726Z,42.16
2019-04-01T13:13:00.489Z,42.35
2019-04-01T13:15:28.337Z,42.32
2019-04-01T13:17:56.118Z,41.79
2019-04-01T13:20:37.209Z,41.52
2019-04-01T13:23:05.179Z,41.86
2019-04-01T13:25:33.797Z,42.07
2019-04-01T13:28:04.588Z,41.48
2019-04-01T13:30:32.315Z,40.83
2019-04-01T13:33:00.254Z,41.09
2019-04-01T13:35:27.974Z,41.01
2019-04-01T13:37:55.687Z,40.99
2019-04-01T13:40:23.434Z,40.73
2019-04-01T13:42:51.151Z,40.87
2019-04-01T13:45:18.880Z,40.93
2019-04-01T13:47:46.722Z,41.10
2019-04-01T13:50:16.328Z,41.00
2019-04-01T13:52:43.931Z,41.08
2019-04-01T13:55:21.392Z,40.80
2019-04-01T13:57:49.114Z,39.95
2019-04-01T14:00:16.913Z,39.62
2019-04-01T14:02:44.638Z,40.51
2019-04-01T14:05:12.350Z,40.27
2019-04-01T14:07:40.096Z,39.87
2019-04-01T14:10:07.822Z,39.09
2019-04-01T14:12:35.591Z,40.53
2019-04-01T14:15:03.588Z,40.08
2019-04-01T14:17:31.375Z,38.91
2019-04-01T14:20:01.290Z,40.18
2019-04-01T14:22:29.068Z,38.43
2019-04-01T14:24:56.796Z,40.28
2019-04-01T14:27:24.994Z,38.92
2019-04-01T14:30:03.507Z,40.27
2019-04-01T14:32:30.988Z,39.63
2019-04-01T14:34:58.799Z,38.79
2019-04-01T14:37:29.967Z,38.59
2019-04-01T14:39:55.983Z,38.21
2019-04-01T14:42:23.762Z,36.38
2019-04-01T14:44:58.400Z,38.99
2019-04-01T14:47:26.350Z,38.77
2019-04-01T14:49:54.129Z,39.33
2019-04-01T14:52:32.150Z,38.42
2019-04-01T14:54:54.890Z,38.79
2019-04-01T14:57:21.398Z,39.65
2019-04-01T14:59:56.262Z,39.10
2019-04-01T15:02:23.185Z,38.71
2019-04-01T15:04:50.911Z,39.01
2019-04-01T15:07:18.735Z,39.58
2019-04-01T15:09:46.902Z,39.00
2019-04-01T15:12:14.738Z,38.72
2019-04-01T15:14:42.505Z,37.79
2019-04-01T15:17:10.374Z,38.80
2019-04-01T15:19:38.124Z,38.59
2019-04-01T15:22:05.867Z,38.19
2019-04-01T15:24:33.678Z,38.69
2019-04-01T15:27:01.404Z,37.77
2019-04-01T15:29:29.260Z,37.63
2019-04-01T15:31:57.238Z,38.04
2019-04-01T15:34:24.987Z,38.59
2019-04-01T15:36:55.093Z,38.56
2019-04-01T15:39:31.734Z,38.53
2019-04-01T15:41:59.662Z,37.25
2019-04-01T15:44:29.258Z,38.15
2019-04-01T15:46:56.972Z,37.68
2019-04-01T15:49:30.171Z,37.69
2019-04-01T15:51:57.929Z,38.26
2019-04-01T15:54:26.015Z,38.94
2019-04-01T15:56:53.726Z,38.12
2019-04-01T15:59:21.555Z,37.78
2019-04-01T16:01:49.287Z,36.67
2019-04-01T16:04:17.079Z,36.55
2019-04-01T16:06:44.818Z,37.32
2019-04-01T16:09:12.582Z,37.42
2019-04-01T16:11:40.391Z,37.02
2019-04-01T16:14:20.263Z,36.96
2019-04-01T16:16:47.987Z,36.97
2019-04-01T16:19:15.714Z,37.63
2019-04-01T16:21:43.443Z,36.30
2019-04-01T16:24:11.400Z,36.91
2019-04-01T16:26:39.171Z,37.22
2019-04-01T16:29:06.891Z,38.01
2019-04-01T16:31:34.680Z,37.81
2019-04-01T16:34:02.411Z,38.50
2019-04-01T16:36:30.252Z,38.13
2019-04-01T16:38:58.079Z,38.77
2019-04-01T16:41:25.830Z,38.68
2019-04-01T16:43:53.561Z,37.38
2019-04-01T16:46:21.285Z,37.04
2019-04-01T16:48:58.501Z,38.13
2019-04-01T16:51:26.307Z,39.37
2019-04-01T16:53:56.147Z,38.34
2019-04-01T16:56:23.594Z,37.71
2019-04-01T16:58:52.165Z,37.18
2019-04-01T17:01:19.903Z,37.79
2019-04-01T17:03:48.118Z,38.80
2019-04-01T17:06:16.600Z,38.07
2019-04-01T17:08:44.369Z,36.65
2019-04-01T17:11:12.133Z,35.77
2019-04-01T17:13:39.926Z,35.87
2019-04-01T17:16:07.654Z,36.30
2019-04-01T17:18:35.655Z,35.71
2019-04-01T17:21:04.146Z,36.82
2019-04-01T17:23:32.770Z,35.90
2019-04-01T17:26:08.080Z,36.18
2019-04-01T17:28:36.154Z,36.31
2019-04-01T17:31:03.888Z,35.10
2019-04-01T17:33:31.730Z,35.39
2019-04-01T17:35:59.450Z,35.64
2019-04-01T17:38:27.159Z,36.03
2019-04-01T17:40:54.905Z,36.34
2019-04-01T17:43:23.237Z,36.45
2019-04-01T17:45:51.123Z,36.23
2019-04-01T17:51:40.668Z,36.36
2019-04-01T17:54:08.378Z,37.30
2019-04-01T17:56:36.086Z,37.06
2019-04-01T17:59:03.810Z,38.84
2019-04-01T18:01:31.611Z,37.14
2019-04-01T18:03:59.330Z,38.33
2019-04-01T18:06:27.060Z,37.42
2019-04-01T18:08:54.810Z,38.51
2019-04-01T18:11:22.520Z,38.02
2019-04-01T18:13:50.959Z,39.66
2019-04-01T18:16:34.792Z,39.16
2019-04-01T18:18:54.316Z,37.31
2019-04-01T18:21:22.036Z,37.73
2019-04-01T18:23:49.773Z,38.98
2019-04-01T18:26:18.012Z,39.02
2019-04-01T18:28:46.079Z,38.52
2019-04-01T18:31:13.805Z,39.30
2019-04-01T18:33:55.317Z,39.22
2019-04-01T18:36:11.406Z,38.94
2019-04-01T18:38:40.979Z,39.55
2019-04-01T18:41:08.862Z,38.85
2019-04-01T18:43:36.594Z,38.68
2019-04-01T18:46:04.319Z,37.96
2019-04-01T18:48:32.053Z,38.72
2019-04-01T18:50:59.779Z,38.21
2019-04-01T18:53:28.610Z,37.02
2019-04-01T18:56:05.178Z,38.27
2019-04-01T18:58:32.904Z,37.54
2019-04-01T19:01:00.630Z,37.53
2019-04-01T19:03:28.342Z,38.48
2019-04-01T19:05:56.107Z,37.46
2019-04-01T19:08:24.090Z,38.78
2019-04-01T19:11:01.748Z,38.74
2019-04-01T19:13:22.578Z,37.60
2019-04-01T19:15:51.322Z,38.18
2019-04-01T19:18:19.848Z,38.31
2019-04-01T19:20:56.290Z,37.83
2019-04-01T19:23:17.031Z,37.91
2019-04-01T19:25:44.744Z,37.94
2019-04-01T19:28:12.559Z,37.87
2019-04-01T19:30:40.324Z,39.23
2019-04-01T19:33:20.326Z,38.16
2019-04-01T19:35:48.059Z,38.44
2019-04-01T19:38:15.799Z,38.60
2019-04-01T19:40:43.554Z,38.82
2019-04-01T19:43:11.278Z,38.93
2019-04-01T19:45:39.234Z,38.66
2019-04-01T19:48:08.001Z,38.94
2019-04-01T19:50:35.739Z,37.85
2019-04-01T19:53:03.498Z,38.91
2019-04-01T19:55:31.209Z,39.36
2019-04-01T19:57:58.958Z,38.68
2019-04-01T20:00:28.478Z,39.55
2019-04-01T20:02:56.621Z,37.97
2019-04-01T20:05:24.584Z,37.92
2019-04-01T20:07:56.388Z,39.26
2019-04-01T20:10:28.362Z,39.22
2019-04-01T20:12:56.338Z,37.72
2019-04-01T20:15:25.185Z,40.32
2019-04-01T20:17:52.884Z,38.83
2019-04-01T20:20:20.602Z,38.18
2019-04-01T20:22:48.338Z,39.02
2019-04-01T20:25:17.113Z,38.75
2019-04-01T20:27:45.324Z,39.65
2019-04-01T20:30:13.301Z,38.88
2019-04-01T20:32:41.070Z,38.88
2019-04-01T20:35:22.324Z,39.67
2019-04-01T20:37:38.229Z,40.25
2019-04-01T20:40:06.138Z,38.73
2019-04-01T20:42:33.943Z,39.60
2019-04-01T20:45:01.861Z,40.04
2019-04-01T20:47:37.594Z,40.33
2019-04-01T20:50:02.730Z,39.12
2019-04-01T20:52:30.442Z,38.24
2019-04-01T20:54:58.156Z,39.14
2019-04-01T20:57:25.908Z,39.51
2019-04-01T20:59:53.623Z,40.06
2019-04-01T21:02:21.418Z,39.51
2019-04-01T21:04:49.126Z,39.79
2019-04-01T21:07:18.222Z,38.68
2019-04-01T21:09:46.123Z,39.54
2019-04-01T21:12:13.880Z,42.49
2019-04-01T21:14:41.592Z,42.65
2019-04-01T21:17:09.427Z,40.54
2019-04-01T21:19:37.178Z,39.41
2019-04-01T21:22:04.885Z,40.35
2019-04-01T21:24:37.687Z,40.55
2019-04-01T21:27:09.143Z,41.07
2019-04-01T21:29:37.115Z,39.63
2019-04-01T21:32:04.818Z,39.81
2019-04-01T21:34:32.559Z,40.12
2019-04-01T21:37:03.157Z,40.31
2019-04-01T21:39:30.206Z,39.70
2019-04-01T21:41:58.430Z,40.58
2019-04-01T21:44:26.154Z,40.82
2019-04-01T21:46:53.863Z,41.71
2019-04-01T21:49:21.607Z,40.83
2019-04-01T21:51:49.342Z,41.01
2019-04-01T21:54:17.146Z,41.49
2019-04-01T21:56:44.942Z,40.02
2019-04-01T21:59:12.674Z,39.99
2019-04-01T22:01:40.466Z,41.34
2019-04-01T22:04:08.189Z,39.58
2019-04-01T22:06:41.707Z,40.70
2019-04-01T22:09:10.440Z,39.61
2019-04-01T22:11:38.169Z,40.83
2019-04-01T22:14:05.871Z,38.84
2019-04-01T22:16:33.586Z,39.42
2019-04-01T22:19:01.323Z,40.87
2019-04-01T22:21:29.039Z,39.31
2019-04-01T22:23:57.803Z,39.71
2019-04-01T22:26:25.528Z,40.61
2019-04-01T22:28:53.298Z,40.86
2019-04-01T22:31:21.013Z,40.38
2019-04-01T22:33:48.731Z,42.92
2019-04-01T22:36:16.457Z,40.05
2019-04-01T22:38:44.504Z,41.70
2019-04-01T22:41:12.238Z,39.32
2019-04-01T22:43:39.980Z,39.83
2019-04-01T22:46:15.199Z,41.56
2019-04-01T22:48:43.214Z,40.84
2019-04-01T22:51:11.228Z,40.32
2019-04-01T22:53:39.054Z,40.01
2019-04-01T22:56:06.864Z,40.34
2019-04-01T22:58:34.635Z,41.26
2019-04-01T23:01:02.388Z,39.97
2019-04-01T23:03:30.144Z,42.28
2019-04-01T23:05:57.893Z,39.86
2019-04-01T23:08:25.649Z,39.14
2019-04-01T23:10:53.395Z,41.05
2019-04-01T23:13:21.135Z,39.54
2019-04-01T23:15:48.850Z,41.04
2019-04-01T23:18:16.614Z,39.86
2019-04-01T23:20:44.340Z,38.16
2019-04-01T23:23:12.082Z,41.47
2019-04-01T23:25:39.840Z,37.53
2019-04-01T23:28:16.641Z,40.69
2019-04-01T23:30:44.413Z,41.25
2019-04-01T23:33:12.122Z,42.39
2019-04-01T23:35:39.870Z,41.45
2019-04-01T23:38:08.249Z,39.11
2019-04-01T23:40:36.239Z,39.61
2019-04-01T23:43:03.955Z,39.48
2019-04-01T23:45:31.691Z,39.61
2019-04-01T23:47:59.415Z,39.11
2019-04-01T23:50:27.147Z,36.35
2019-04-01T23:52:54.862Z,42.14
2019-04-01T23:55:22.598Z,36.00
2019-04-01T23:57:50.345Z,40.16
